createdAt,value
2023-01-23T06:07:38.227Z,-2.78
2023-01-23T06:10:10.098Z,-2.79
2023-01-23T06:12:37.366Z,-2.78
2023-01-23T06:15:05.537Z,-2.80
2023-01-23T06:17:33.196Z,-2.80
2023-01-23T06:20:00.421Z,-2.79
2023-01-23T06:22:29.509Z,-2.77
2023-01-23T06:25:10.816Z,-2.74
2023-01-23T06:27:38.260Z,-2.72
2023-01-23T06:30:08.310Z,-2.70
2023-01-23T06:32:43.332Z,-2.66
2023-01-23T06:35:11.079Z,-2.63
2023-01-23T06:37:42.206Z,-2.60
2023-01-23T06:40:12.869Z,-2.59
2023-01-23T06:42:42.185Z,-2.57
2023-01-23T06:45:10.801Z,-2.54
2023-01-23T06:47:38.250Z,-2.52
2023-01-23T06:50:06.287Z,-2.49
2023-01-23T06:52:36.813Z,-2.46
2023-01-23T06:55:06.197Z,-2.42
2023-01-23T06:57:33.973Z,-2.38
2023-01-23T07:00:02.247Z,-2.37
2023-01-23T07:02:30.892Z,-2.36
2023-01-23T07:04:58.295Z,-2.33
2023-01-23T07:07:26.209Z,-2.31
2023-01-23T07:09:54.229Z,-2.30
2023-01-23T07:12:26.305Z,-2.30
2023-01-23T07:14:53.741Z,-2.29
2023-01-23T07:17:25.004Z,-2.27
2023-01-23T07:19:52.377Z,-2.26
2023-01-23T07:22:22.567Z,-2.26
2023-01-23T07:24:49.707Z,-2.23
2023-01-23T07:27:17.081Z,-2.19
2023-01-23T07:29:46.134Z,-2.15
2023-01-23T07:32:13.220Z,-2.13
2023-01-23T07:34:53.848Z,-2.12
2023-01-23T07:37:21.589Z,-2.14
2023-01-23T07:39:50.211Z,-2.13
2023-01-23T07:42:18.565Z,-2.09
2023-01-23T07:44:47.627Z,-2.05
2023-01-23T07:47:15.051Z,-2.01
2023-01-23T07:49:42.212Z,-1.95
2023-01-23T07:52:09.858Z,-1.91
2023-01-23T07:54:37.036Z,-1.89
2023-01-23T07:57:04.809Z,-1.87
2023-01-23T07:59:32.261Z,-1.85
2023-01-23T08:02:08.925Z,-1.84
2023-01-23T08:04:38.433Z,-1.83
2023-01-23T08:36:15.640Z,-1.76
2023-01-23T08:38:43.124Z,-1.79
2023-01-23T09:14:35.776Z,-1.92
2023-01-23T09:17:09.252Z,-1.86
2023-01-23T09:19:37.283Z,-1.83
2023-01-23T09:22:04.817Z,-1.82
2023-01-23T09:24:32.783Z,-1.83
2023-01-23T09:26:59.989Z,-1.82
2023-01-23T09:29:27.152Z,-1.80
2023-01-23T09:31:55.662Z,-1.81
2023-01-23T09:34:22.960Z,-1.83
2023-01-23T09:36:49.966Z,-1.85
2023-01-23T09:39:32.697Z,-1.86
2023-01-23T09:42:14.476Z,-1.84
2023-01-23T09:44:44.355Z,-1.83
2023-01-23T09:47:20.997Z,-1.81
2023-01-23T09:49:58.257Z,-1.80
2023-01-23T09:52:30.731Z,-1.79
2023-01-23T09:55:01.875Z,-1.78
2023-01-23T09:57:43.805Z,-1.78
2023-01-23T10:00:31.411Z,-1.78
2023-01-23T10:03:02.384Z,-1.78
2023-01-23T10:05:41.900Z,-1.78
2023-01-23T10:08:38.087Z,-1.81
2023-01-23T10:11:13.365Z,-1.80
2023-01-23T10:13:48.184Z,-1.79
2023-01-23T10:16:15.542Z,-1.78
2023-01-23T10:19:21.833Z,-1.77
2023-01-23T10:21:57.026Z,-1.75
2023-01-23T10:24:52.323Z,-1.75
2023-01-23T10:27:25.937Z,-1.72
2023-01-23T10:30:03.462Z,-1.70
2023-01-23T10:35:53.001Z,-1.72
2023-01-23T10:38:48.312Z,-1.75
2023-01-23T10:41:21.075Z,-1.75
2023-01-23T10:43:51.479Z,-1.75
2023-01-23T10:46:20.880Z,-1.73
2023-01-23T10:48:49.879Z,-1.73
2023-01-23T10:51:26.868Z,-1.76
2023-01-23T10:54:31.328Z,-1.80
2023-01-23T10:57:04.371Z,-1.80
2023-01-23T10:59:32.226Z,-1.82
2023-01-23T11:02:27.226Z,-1.85
2023-01-23T11:04:55.008Z,-1.88
2023-01-23T11:07:28.303Z,-1.91
2023-01-23T11:10:07.785Z,-1.89
2023-01-23T11:12:46.575Z,-1.87
2023-01-23T11:15:19.841Z,-1.85
2023-01-23T11:17:47.526Z,-1.85
2023-01-23T11:20:32.958Z,-1.87
2023-01-23T11:23:00.217Z,-1.86
2023-01-23T11:25:33.381Z,-1.84
2023-01-23T11:28:02.538Z,-1.86
2023-01-23T11:30:46.775Z,-1.86
2023-01-23T11:33:31.659Z,-1.85
2023-01-23T11:36:19.148Z,-1.84
2023-01-23T11:39:19.591Z,-1.83
2023-01-23T11:41:47.353Z,-1.84
2023-01-23T11:44:19.322Z,-1.86
2023-01-23T11:46:52.007Z,-1.86
2023-01-23T11:49:21.999Z,-1.86
2023-01-23T11:51:49.273Z,-1.84
2023-01-23T11:54:54.274Z,-1.86
2023-01-23T11:57:36.381Z,-1.85
2023-01-23T12:00:52.041Z,-1.81
2023-01-23T12:03:51.760Z,-1.78
2023-01-23T12:06:34.365Z,-1.79
2023-01-23T12:09:17.664Z,-1.81
2023-01-23T12:12:10.025Z,-1.79
2023-01-23T12:14:52.709Z,-1.78
2023-01-23T12:17:50.919Z,-1.76
2023-01-23T12:20:33.371Z,-1.75
2023-01-23T12:23:52.148Z,-1.77
2023-01-23T12:26:22.588Z,-1.75
2023-01-23T12:29:31.588Z,-1.74
2023-01-23T12:32:20.806Z,-1.72
2023-01-23T12:35:19.155Z,-1.73
2023-01-23T12:38:07.837Z,-1.76
2023-01-23T12:40:46.265Z,-1.80
2023-01-23T12:43:37.455Z,-1.84
2023-01-23T12:46:14.404Z,-1.87
2023-01-23T12:48:48.914Z,-1.87
2023-01-23T12:51:22.325Z,-1.88
2023-01-23T12:53:52.394Z,-1.88
2023-01-23T12:56:29.546Z,-1.87
2023-01-23T12:59:01.601Z,-1.84
2023-01-23T13:01:57.234Z,-1.83
2023-01-23T13:04:36.129Z,-1.83
2023-01-23T13:07:54.961Z,-1.83
2023-01-23T13:11:19.816Z,-1.84
2023-01-23T13:13:47.018Z,-1.87
2023-01-23T13:16:19.033Z,-1.87
2023-01-23T13:19:12.737Z,-1.86
2023-01-23T13:21:58.957Z,-1.87
2023-01-23T13:25:07.503Z,-1.88
2023-01-23T13:27:41.792Z,-1.91
2023-01-23T13:30:25.674Z,-1.90
2023-01-23T13:33:00.276Z,-1.91
2023-01-23T13:35:39.473Z,-1.94
2023-01-23T13:38:22.287Z,-1.96
2023-01-23T13:41:04.647Z,-1.98
2023-01-23T13:43:52.779Z,-1.99
2023-01-23T13:46:36.877Z,-2.00
2023-01-23T18:16:36.634Z,-2.17
2023-01-23T18:19:22.849Z,-2.04
2023-01-23T18:21:53.885Z,-2.02
2023-01-23T18:24:30.555Z,-2.00
2023-01-23T18:27:17.698Z,-1.98
2023-01-23T18:30:05.206Z,-1.95
2023-01-23T18:32:39.936Z,-1.91
2023-01-23T18:35:26.815Z,-1.89
2023-01-23T18:38:11.377Z,-1.89
2023-01-23T18:41:05.523Z,-1.87
2023-01-23T18:43:40.257Z,-1.84
2023-01-23T18:46:13.347Z,-1.85
2023-01-23T18:48:43.461Z,-1.85
2023-01-23T18:51:21.062Z,-1.86
2023-01-23T18:54:08.688Z,-1.87
2023-01-23T18:57:01.126Z,-1.88
2023-01-23T18:59:37.093Z,-1.90
2023-01-23T19:02:21.195Z,-1.88
2023-01-23T19:05:05.478Z,-1.87
2023-01-23T19:07:35.334Z,-1.87
2023-01-23T19:10:07.893Z,-1.87
2023-01-23T19:12:42.191Z,-1.89
2023-01-23T19:15:43.383Z,-1.91
2023-01-23T19:18:40.452Z,-1.92
2023-01-23T19:21:29.398Z,-1.92
2023-01-23T19:24:00.851Z,-1.92
2023-01-23T19:26:32.503Z,-1.92
2023-01-23T19:29:19.278Z,-1.92
2023-01-23T19:32:04.136Z,-1.92
2023-01-23T19:34:34.656Z,-1.93
2023-01-23T19:37:04.188Z,-1.93
2023-01-23T19:39:33.741Z,-1.94
2023-01-23T19:42:02.834Z,-1.94
2023-01-23T19:44:31.482Z,-1.94
2023-01-23T19:47:00.410Z,-1.95
2023-01-23T19:49:29.223Z,-1.94
2023-01-23T19:51:57.795Z,-1.94
2023-01-23T19:54:28.521Z,-1.95
2023-01-23T19:56:57.735Z,-1.96
2023-01-23T19:59:27.506Z,-1.97
2023-01-23T20:02:00.296Z,-1.97
2023-01-23T20:04:29.628Z,-1.98
2023-01-23T20:06:58.906Z,-2.00
2023-01-23T20:09:27.939Z,-2.06
2023-01-23T20:11:58.252Z,-2.09
2023-01-23T20:14:27.711Z,-2.13
2023-01-23T20:16:56.812Z,-2.15
2023-01-23T20:19:25.636Z,-2.17
2023-01-23T20:21:54.342Z,-2.19
2023-01-23T20:24:24.724Z,-2.20
2023-01-23T20:26:53.946Z,-2.23
2023-01-23T20:29:22.465Z,-2.24
2023-01-23T20:31:52.523Z,-2.25
2023-01-23T20:34:21.341Z,-2.25
2023-01-23T20:36:50.537Z,-2.25
2023-01-23T20:39:20.252Z,-2.25
2023-01-23T20:41:48.965Z,-2.25
2023-01-23T20:44:17.739Z,-2.24
2023-01-23T20:46:46.298Z,-2.24
2023-01-23T20:49:15.147Z,-2.23
2023-01-23T20:51:43.655Z,-2.22
2023-01-23T20:54:12.161Z,-2.22
2023-01-23T20:56:41.448Z,-2.22
2023-01-23T20:59:19.554Z,-2.21
2023-01-23T21:02:07.057Z,-2.19
2023-01-23T21:04:36.801Z,-2.17
2023-01-23T21:07:05.820Z,-2.15
2023-01-23T21:09:35.420Z,-2.13
2023-01-23T21:12:04.384Z,-2.10
2023-01-23T21:14:33.382Z,-2.07
2023-01-23T21:17:02.418Z,-2.05
2023-01-23T21:19:32.596Z,-2.04
2023-01-23T21:22:01.177Z,-2.02
2023-01-23T21:24:34.760Z,-1.99
2023-01-23T21:27:04.898Z,-1.96
2023-01-23T21:29:34.006Z,-1.94
2023-01-23T21:32:02.735Z,-1.92
2023-01-23T21:34:31.463Z,-1.91
2023-01-23T21:37:00.769Z,-1.89
2023-01-23T21:39:29.648Z,-1.87
2023-01-23T21:41:58.549Z,-1.87
2023-01-23T21:44:27.461Z,-1.88
2023-01-23T21:46:56.125Z,-1.87
2023-01-23T21:49:27.370Z,-1.86
2023-01-23T21:51:56.014Z,-1.84
2023-01-23T21:54:24.721Z,-1.83
2023-01-23T21:56:54.353Z,-1.82
2023-01-23T21:59:23.010Z,-1.82
2023-01-23T22:01:51.516Z,-1.81
